Time;durP1;ratioP1;P1;durP2;ratioP2;P2;SDS_P1;SDS_P2;PMS_P1;PMS_P2;Temp;Humidity;BMP_temperature;BMP_pressure;BME280_temperature;BME280_humidity;BME280_pressure;Samples;Min_cycle;Max_cycle;Signal;HPM_P1;HPM_P2
2024/01/01 00:01:09;;;;;;;;;;;8.60;99.90;;;;;;2616172;54;19938;-71
2024/01/01 00:03:39;;;;;;;;;;;8.60;99.90;;;;;;2621928;54;19962;-71
2024/01/01 00:06:09;;;;;;;;;;;8.60;99.90;;;;;;2619398;47;19947;-71
2024/01/01 00:08:38;;;;;;;;;;;8.60;99.90;;;;;;2616492;47;20488;-72
2024/01/01 00:11:08;;;;;;;;;;;8.60;99.90;;;;;;2616580;47;19939;-71
2024/01/01 00:13:40;;;;;;;;;;;8.50;99.90;;;;;;2616777;47;19939;-71
2024/01/01 00:16:10;;;;;;;;;;;8.60;99.90;;;;;;2616299;47;19938;-72
2024/01/01 00:18:41;;;;;;;;;;;8.60;99.90;;;;;;2615536;39;20329;-72
2024/01/01 00:21:11;;;;;;;;;;;8.50;99.90;;;;;;2616674;47;20440;-72
2024/01/01 00:23:40;;;;;;;;;;;8.50;99.90;;;;;;2614353;54;21152;-70
2024/01/01 00:26:10;;;;;;;;;;;8.50;99.90;;;;;;2615733;54;19946;-71
2024/01/01 00:28:42;;;;;;;;;;;8.50;99.90;;;;;;2617136;39;20364;-71
2024/01/01 00:31:12;;;;;;;;;;;8.50;99.90;;;;;;2615787;47;20034;-71
2024/01/01 00:33:42;;;;;;;;;;;8.50;99.90;;;;;;2616894;51;19947;-72
2024/01/01 00:36:11;;;;;;;;;;;8.50;99.90;;;;;;2619615;47;19938;-71
2024/01/01 00:38:41;;;;;;;;;;;8.50;99.90;;;;;;2619814;47;19947;-72
2024/01/01 00:41:16;;;;;;;;;;;8.50;99.90;;;;;;2616456;54;19954;-71
2024/01/01 00:43:49;;;;;;;;;;;8.50;99.90;;;;;;2616531;54;19985;-71
2024/01/01 00:46:19;;;;;;;;;;;8.50;99.90;;;;;;2616323;31;20463;-71
2024/01/01 00:48:48;;;;;;;;;;;8.50;99.90;;;;;;2616587;50;20460;-71
2024/01/01 00:51:18;;;;;;;;;;;8.50;99.90;;;;;;2616869;47;19947;-71
2024/01/01 00:53:48;;;;;;;;;;;8.50;99.90;;;;;;2616320;54;19968;-71
2024/01/01 00:56:17;;;;;;;;;;;8.50;99.90;;;;;;2615631;54;19946;-71
2024/01/01 00:58:50;;;;;;;;;;;8.50;99.90;;;;;;2617883;39;20416;-71
2024/01/01 01:01:19;;;;;;;;;;;8.10;99.90;;;;;;2616676;54;19954;-72
2024/01/01 01:03:49;;;;;;;;;;;8.50;99.90;;;;;;2616393;54;19943;-71
2024/01/01 01:06:19;;;;;;;;;;;8.50;99.90;;;;;;2617772;54;19958;-71
2024/01/01 01:08:53;;;;;;;;;;;8.50;99.90;;;;;;2617877;39;20469;-71
2024/01/01 01:11:23;;;;;;;;;;;8.50;99.90;;;;;;2615892;54;19958;-71
2024/01/01 01:13:56;;;;;;;;;;;8.50;99.90;;;;;;2614575;47;19957;-71
2024/01/01 01:16:26;;;;;;;;;;;8.50;99.90;;;;;;2617020;54;19954;-71
2024/01/01 01:18:55;;;;;;;;;;;8.50;99.90;;;;;;2617275;39;20413;-71
2024/01/01 01:21:25;;;;;;;;;;;8.50;99.90;;;;;;2618734;47;20519;-71
2024/01/01 01:23:55;;;;;;;;;;;8.50;99.90;;;;;;2620510;47;20436;-72
2024/01/01 01:26:25;;;;;;;;;;;8.60;99.90;;;;;;2615063;47;19992;-72
2024/01/01 01:28:58;;;;;;;;;;;8.60;99.90;;;;;;2617604;54;19939;-72
2024/01/01 01:31:28;;;;;;;;;;;8.60;99.90;;;;;;2616772;52;19940;-71
2024/01/01 01:33:57;;;;;;;;;;;8.60;99.90;;;;;;2617136;54;19938;-71
2024/01/01 01:36:27;;;;;;;;;;;8.60;99.90;;;;;;2615472;47;19957;-71
2024/01/01 01:38:58;;;;;;;;;;;8.60;99.90;;;;;;2617584;54;19953;-72
2024/01/01 01:41:27;;;;;;;;;;;8.60;99.90;;;;;;2617626;47;19953;-71
2024/01/01 01:43:59;;;;;;;;;;;8.70;99.90;;;;;;2617739;46;19953;-71
2024/01/01 01:46:30;;;;;;;;;;;8.70;99.90;;;;;;2616494;54;19946;-71
2024/01/01 01:49:01;;;;;;;;;;;8.50;99.90;;;;;;2617488;54;19954;-71
2024/01/01 01:51:31;;;;;;;;;;;8.60;99.90;;;;;;2615668;54;19946;-71
2024/01/01 01:54:01;;;;;;;;;;;8.60;99.90;;;;;;2616546;54;19946;-72
2024/01/01 01:56:30;;;;;;;;;;;8.60;99.90;;;;;;2616724;54;19947;-72
2024/01/01 01:59:03;;;;;;;;;;;8.60;99.90;;;;;;2617371;54;19951;-72
2024/01/01 02:01:33;;;;;;;;;;;8.60;99.90;;;;;;2617489;54;19946;-72
2024/01/01 02:04:03;;;;;;;;;;;8.60;99.90;;;;;;2617227;54;19974;-72
2024/01/01 02:06:32;;;;;;;;;;;8.60;99.90;;;;;;2617720;54;20704;-70
2024/01/01 02:09:02;;;;;;;;;;;8.60;99.90;;;;;;2617914;39;20355;-71
2024/01/01 02:11:32;;;;;;;;;;;8.60;99.90;;;;;;2617522;54;19954;-72
2024/01/01 02:14:14;;;;;;;;;;;8.80;99.90;;;;;;2622879;54;19969;-71
2024/01/01 02:16:44;;;;;;;;;;;8.60;99.90;;;;;;2617909;47;19984;-71
2024/01/01 02:19:18;;;;;;;;;;;8.60;99.90;;;;;;2616110;47;20491;-71
2024/01/01 02:21:48;;;;;;;;;;;8.60;99.90;;;;;;2621761;47;20002;-71
2024/01/01 02:24:20;;;;;;;;;;;8.60;99.90;;;;;;2617990;54;20046;-71
2024/01/01 02:26:50;;;;;;;;;;;8.60;99.90;;;;;;2616675;47;19954;-70
2024/01/01 02:29:20;;;;;;;;;;;8.60;99.90;;;;;;2616968;54;20061;-71
2024/01/01 02:31:51;;;;;;;;;;;8.60;99.90;;;;;;2616901;47;19950;-71
2024/01/01 02:34:22;;;;;;;;;;;8.60;99.90;;;;;;2616275;54;20026;-71
2024/01/01 02:36:53;;;;;;;;;;;8.60;99.90;;;;;;2617360;54;20042;-72
2024/01/01 02:39:26;;;;;;;;;;;8.60;99.90;;;;;;2617091;47;19954;-70
2024/01/01 02:41:55;;;;;;;;;;;8.60;99.90;;;;;;2618705;48;19947;-70
2024/01/01 02:44:25;;;;;;;;;;;8.60;99.90;;;;;;2622181;47;19969;-71
2024/01/01 02:46:54;;;;;;;;;;;8.60;99.90;;;;;;2620946;54;19938;-71
2024/01/01 02:49:24;;;;;;;;;;;8.60;99.90;;;;;;2620512;46;19946;-70
2024/01/01 02:51:53;;;;;;;;;;;8.70;99.90;;;;;;2621899;47;19947;-71
2024/01/01 02:54:26;;;;;;;;;;;8.70;99.90;;;;;;2621728;54;19953;-71
2024/01/01 02:56:55;;;;;;;;;;;8.70;99.90;;;;;;2622861;54;19958;-71
2024/01/01 02:59:25;;;;;;;;;;;8.60;99.90;;;;;;2623568;47;19947;-72
2024/01/01 03:01:54;;;;;;;;;;;8.70;99.90;;;;;;2623189;39;20419;-71
2024/01/01 03:04:24;;;;;;;;;;;8.70;99.90;;;;;;2623035;47;19939;-70
2024/01/01 03:06:54;;;;;;;;;;;8.70;99.90;;;;;;2623061;47;19939;-70
2024/01/01 03:09:26;;;;;;;;;;;8.70;99.90;;;;;;2622526;54;19946;-71
2024/01/01 03:11:56;;;;;;;;;;;8.60;99.90;;;;;;2623031;54;19955;-71
2024/01/01 03:14:25;;;;;;;;;;;8.60;99.90;;;;;;2621211;54;19966;-71
2024/01/01 03:16:56;;;;;;;;;;;8.60;99.90;;;;;;2620481;54;19951;-70
2024/01/01 03:19:26;;;;;;;;;;;8.60;99.90;;;;;;2620668;54;19954;-71
2024/01/01 03:21:56;;;;;;;;;;;8.60;99.90;;;;;;2619922;54;19956;-71
2024/01/01 03:24:28;;;;;;;;;;;8.50;99.90;;;;;;2620376;39;20349;-71
2024/01/01 03:26:57;;;;;;;;;;;8.50;99.90;;;;;;2620154;54;19947;-71
2024/01/01 03:29:27;;;;;;;;;;;8.50;99.90;;;;;;2622157;54;20852;-71
2024/01/01 03:31:57;;;;;;;;;;;8.50;99.90;;;;;;2622018;54;19953;-71
2024/01/01 03:34:26;;;;;;;;;;;8.50;99.90;;;;;;2619584;47;19989;-71
2024/01/01 03:36:56;;;;;;;;;;;8.50;99.90;;;;;;2618583;54;19953;-71
2024/01/01 03:39:28;;;;;;;;;;;8.40;99.90;;;;;;2617321;54;20013;-71
2024/01/01 03:41:58;;;;;;;;;;;8.40;99.90;;;;;;2617174;54;19950;-71
2024/01/01 03:44:27;;;;;;;;;;;8.40;99.90;;;;;;2616037;54;19972;-71
2024/01/01 03:46:57;;;;;;;;;;;8.40;99.90;;;;;;2617367;54;19939;-71
2024/01/01 03:49:26;;;;;;;;;;;8.30;99.90;;;;;;2620421;54;19953;-70
2024/01/01 03:51:56;;;;;;;;;;;8.30;99.90;;;;;;2618020;39;20033;-70
2024/01/01 03:54:28;;;;;;;;;;;8.30;99.90;;;;;;2616431;54;19969;-70
2024/01/01 03:56:58;;;;;;;;;;;8.30;99.90;;;;;;2617839;39;20346;-70
2024/01/01 03:59:28;;;;;;;;;;;8.40;99.90;;;;;;2615740;54;19946;-70
2024/01/01 04:01:57;;;;;;;;;;;8.30;99.90;;;;;;2616761;54;19946;-71
2024/01/01 04:04:28;;;;;;;;;;;8.30;99.90;;;;;;2617230;54;19954;-71
2024/01/01 04:06:57;;;;;;;;;;;8.30;99.90;;;;;;2617021;47;19954;-70
2024/01/01 04:09:30;;;;;;;;;;;8.30;99.90;;;;;;2616529;47;19946;-70
2024/01/01 04:11:59;;;;;;;;;;;8.30;99.90;;;;;;2616955;46;19962;-70
2024/01/01 04:14:29;;;;;;;;;;;8.30;99.90;;;;;;2614382;54;19954;-70
2024/01/01 04:16:59;;;;;;;;;;;8.30;99.90;;;;;;2615900;54;19938;-70
2024/01/01 04:19:28;;;;;;;;;;;8.30;99.90;;;;;;2616122;47;19953;-70
2024/01/01 04:21:58;;;;;;;;;;;8.30;99.90;;;;;;2616854;54;19966;-70
2024/01/01 04:24:30;;;;;;;;;;;8.30;99.90;;;;;;2616336;54;20460;-70
2024/01/01 04:27:00;;;;;;;;;;;8.30;99.90;;;;;;2618358;47;19951;-71
2024/01/01 04:29:29;;;;;;;;;;;8.30;99.90;;;;;;2619291;54;19957;-70
2024/01/01 04:31:59;;;;;;;;;;;8.30;99.90;;;;;;2619266;54;20449;-71
2024/01/01 04:34:29;;;;;;;;;;;8.30;99.90;;;;;;2620993;47;19998;-71
2024/01/01 04:36:58;;;;;;;;;;;8.40;99.90;;;;;;2622069;47;19950;-70
2024/01/01 04:39:31;;;;;;;;;;;8.40;99.90;;;;;;2618879;54;19938;-71
2024/01/01 04:42:00;;;;;;;;;;;8.30;99.90;;;;;;2617133;47;19973;-71
2024/01/01 04:44:30;;;;;;;;;;;8.30;99.90;;;;;;2616327;54;19946;-71
2024/01/01 04:47:00;;;;;;;;;;;8.30;99.90;;;;;;2616895;54;20069;-70
2024/01/01 04:49:30;;;;;;;;;;;8.30;99.90;;;;;;2616723;47;19946;-71
2024/01/01 04:52:00;;;;;;;;;;;8.30;99.90;;;;;;2616658;54;19953;-70
2024/01/01 04:54:32;;;;;;;;;;;8.30;99.90;;;;;;2617031;54;20449;-70
2024/01/01 04:57:01;;;;;;;;;;;8.30;99.90;;;;;;2617444;54;19939;-70
2024/01/01 04:59:31;;;;;;;;;;;8.30;99.90;;;;;;2616927;39;20361;-70
2024/01/01 05:02:01;;;;;;;;;;;8.30;99.90;;;;;;2615947;47;19946;-72
2024/01/01 05:04:30;;;;;;;;;;;8.30;99.90;;;;;;2617421;39;20364;-70
2024/01/01 05:07:00;;;;;;;;;;;8.20;99.90;;;;;;2616914;54;20452;-70
2024/01/01 05:09:32;;;;;;;;;;;8.30;99.90;;;;;;2616429;47;19947;-71
2024/01/01 05:12:02;;;;;;;;;;;8.30;99.90;;;;;;2616828;54;19946;-71
2024/01/01 05:14:31;;;;;;;;;;;8.30;99.90;;;;;;2617293;54;20061;-71
2024/01/01 05:17:01;;;;;;;;;;;8.30;99.90;;;;;;2616725;54;19946;-71
2024/01/01 05:19:31;;;;;;;;;;;8.30;99.90;;;;;;2621014;47;19938;-70
2024/01/01 05:22:03;;;;;;;;;;;8.30;99.90;;;;;;2620773;54;19954;-71
2024/01/01 05:24:36;;;;;;;;;;;8.30;99.90;;;;;;2620239;54;19953;-71
2024/01/01 05:27:07;;;;;;;;;;;8.30;99.90;;;;;;2618765;47;19946;-70
2024/01/01 05:29:37;;;;;;;;;;;8.30;99.90;;;;;;2615888;47;19946;-71
2024/01/01 05:32:06;;;;;;;;;;;8.30;99.90;;;;;;2615986;39;20348;-71
2024/01/01 05:34:36;;;;;;;;;;;8.30;99.90;;;;;;2618597;47;20020;-71
2024/01/01 05:37:06;;;;;;;;;;;8.30;99.90;;;;;;2620722;39;20316;-71
2024/01/01 05:39:38;;;;;;;;;;;8.30;99.90;;;;;;2617138;54;19966;-70
2024/01/01 05:42:08;;;;;;;;;;;8.30;99.90;;;;;;2616969;47;19946;-71
2024/01/01 05:44:37;;;;;;;;;;;8.20;99.90;;;;;;2616389;54;19939;-70
2024/01/01 05:47:07;;;;;;;;;;;8.20;99.90;;;;;;2617273;54;19945;-70
2024/01/01 05:49:37;;;;;;;;;;;8.20;99.90;;;;;;2617404;47;20457;-71
2024/01/01 05:52:07;;;;;;;;;;;8.20;99.90;;;;;;2616942;47;19953;-70
2024/01/01 05:54:39;;;;;;;;;;;8.10;99.90;;;;;;2616456;47;19954;-71
2024/01/01 05:57:09;;;;;;;;;;;8.10;99.90;;;;;;2616814;46;20061;-70
2024/01/01 05:59:38;;;;;;;;;;;8.10;99.90;;;;;;2617252;47;19938;-70
2024/01/01 06:02:08;;;;;;;;;;;8.00;99.90;;;;;;2616834;54;19938;-70
2024/01/01 06:04:38;;;;;;;;;;;7.90;99.90;;;;;;2616629;54;19947;-71
2024/01/01 06:07:07;;;;;;;;;;;7.80;99.90;;;;;;2616640;54;20464;-70
2024/01/01 06:09:40;;;;;;;;;;;7.80;99.90;;;;;;2616579;47;19950;-71
2024/01/01 06:12:09;;;;;;;;;;;7.80;99.90;;;;;;2616977;47;19938;-71
2024/01/01 06:14:39;;;;;;;;;;;7.80;99.90;;;;;;2616170;47;19939;-70
2024/01/01 06:17:08;;;;;;;;;;;7.90;99.90;;;;;;2617344;54;19950;-71
2024/01/01 06:19:38;;;;;;;;;;;7.80;99.90;;;;;;2616724;54;19950;-70
2024/01/01 06:22:08;;;;;;;;;;;7.80;99.90;;;;;;2616339;54;19996;-71
2024/01/01 06:24:40;;;;;;;;;;;7.80;99.90;;;;;;2619125;54;19942;-71
2024/01/01 06:27:10;;;;;;;;;;;7.80;99.90;;;;;;2620078;54;19947;-71
2024/01/01 06:29:39;;;;;;;;;;;7.80;99.90;;;;;;2619266;54;19946;-70
2024/01/01 06:32:09;;;;;;;;;;;7.80;99.90;;;;;;2619274;54;19956;-70
2024/01/01 06:34:39;;;;;;;;;;;7.70;99.90;;;;;;2618515;54;20452;-71
2024/01/01 06:37:09;;;;;;;;;;;7.70;99.90;;;;;;2617507;54;20475;-70
2024/01/01 06:39:41;;;;;;;;;;;7.70;99.90;;;;;;2616530;54;19946;-70
2024/01/01 06:42:10;;;;;;;;;;;7.70;99.90;;;;;;2617286;39;20336;-70
2024/01/01 06:44:43;;;;;;;;;;;7.70;99.90;;;;;;2615891;54;19965;-71
2024/01/01 06:47:12;;;;;;;;;;;7.70;99.90;;;;;;2616736;47;19953;-70
2024/01/01 06:49:43;;;;;;;;;;;7.70;99.90;;;;;;2618877;54;19946;-71
2024/01/01 06:52:12;;;;;;;;;;;7.70;99.90;;;;;;2624668;54;19989;-71
2024/01/01 06:54:45;;;;;;;;;;;7.70;99.90;;;;;;2616687;47;20451;-71
2024/01/01 06:57:14;;;;;;;;;;;7.70;99.90;;;;;;2616909;54;20460;-71
2024/01/01 06:59:44;;;;;;;;;;;7.80;99.90;;;;;;2616940;47;19946;-71
2024/01/01 07:02:14;;;;;;;;;;;7.70;99.90;;;;;;2616815;54;19946;-71
2024/01/01 07:04:44;;;;;;;;;;;7.60;99.90;;;;;;2617496;54;19957;-72
2024/01/01 07:07:14;;;;;;;;;;;7.50;99.90;;;;;;2617047;54;20056;-71
2024/01/01 07:09:46;;;;;;;;;;;7.50;99.90;;;;;;2617489;47;19946;-71
2024/01/01 07:12:20;;;;;;;;;;;7.60;99.90;;;;;;2617284;54;21191;-71
2024/01/01 07:14:50;;;;;;;;;;;7.50;99.90;;;;;;2616217;54;19967;-71
2024/01/01 07:17:20;;;;;;;;;;;7.60;99.90;;;;;;2616131;47;20065;-71
2024/01/01 07:19:50;;;;;;;;;;;7.60;99.90;;;;;;2616538;54;20456;-71
2024/01/01 07:22:19;;;;;;;;;;;7.60;99.90;;;;;;2616091;47;19946;-71
2024/01/01 07:24:52;;;;;;;;;;;7.60;99.90;;;;;;2615614;54;19947;-71
2024/01/01 07:27:21;;;;;;;;;;;7.60;99.90;;;;;;2616289;46;19946;-71
2024/01/01 07:29:51;;;;;;;;;;;7.70;99.90;;;;;;2616308;39;20400;-71
2024/01/01 07:32:20;;;;;;;;;;;7.70;99.90;;;;;;2615646;54;19954;-71
2024/01/01 07:34:50;;;;;;;;;;;8.70;99.90;;;;;;2615384;54;19939;-72
2024/01/01 07:37:20;;;;;;;;;;;7.60;99.90;;;;;;2615849;54;19951;-71
2024/01/01 07:39:52;;;;;;;;;;;7.60;99.90;;;;;;2617120;47;20464;-71
2024/01/01 07:42:22;;;;;;;;;;;7.60;99.90;;;;;;2621111;54;19946;-71
2024/01/01 07:44:52;;;;;;;;;;;7.60;99.90;;;;;;2621051;54;19954;-71
2024/01/01 07:47:21;;;;;;;;;;;7.60;99.90;;;;;;2618908;54;19969;-71
2024/01/01 07:49:51;;;;;;;;;;;7.60;99.90;;;;;;2619401;47;19965;-71
2024/01/01 07:54:57;;;;;;;;;;;7.60;99.90;;;;;;2616347;54;19947;-72
2024/01/01 07:57:27;;;;;;;;;;;7.70;99.90;;;;;;2617845;47;19953;-72
2024/01/01 07:59:58;;;;;;;;;;;7.60;99.90;;;;;;2616131;54;20483;-70
2024/01/01 08:02:28;;;;;;;;;;;7.60;99.90;;;;;;2615479;54;19946;-71
2024/01/01 08:04:58;;;;;;;;;;;7.70;99.90;;;;;;2618271;54;19954;-71
2024/01/01 08:07:28;;;;;;;;;;;7.70;99.90;;;;;;2616968;47;19939;-71
2024/01/01 08:10:01;;;;;;;;;;;7.70;99.90;;;;;;2616687;54;19997;-71
2024/01/01 08:12:30;;;;;;;;;;;7.70;99.90;;;;;;2616640;54;19947;-71
2024/01/01 08:15:00;;;;;;;;;;;7.70;99.90;;;;;;2616251;54;19950;-71
2024/01/01 08:17:30;;;;;;;;;;;7.70;99.90;;;;;;2616399;54;20480;-69
2024/01/01 08:19:59;;;;;;;;;;;7.70;99.90;;;;;;2615706;47;19946;-69
2024/01/01 08:22:29;;;;;;;;;;;7.70;99.90;;;;;;2615054;54;19946;-69
2024/01/01 08:25:01;;;;;;;;;;;7.70;99.90;;;;;;2616452;47;19953;-69
2024/01/01 08:27:31;;;;;;;;;;;7.70;99.90;;;;;;2618673;54;19946;-69
2024/01/01 08:30:01;;;;;;;;;;;7.70;99.90;;;;;;2618973;54;19969;-70
2024/01/01 08:32:30;;;;;;;;;;;7.70;99.90;;;;;;2617514;54;19968;-70
2024/01/01 08:35:00;;;;;;;;;;;7.70;99.90;;;;;;2615177;54;19950;-69
2024/01/01 08:37:30;;;;;;;;;;;7.70;99.90;;;;;;2616585;39;20353;-69
2024/01/01 08:40:02;;;;;;;;;;;7.70;99.90;;;;;;2615892;54;19946;-69
2024/01/01 08:42:31;;;;;;;;;;;7.80;99.90;;;;;;2615718;50;19938;-70
2024/01/01 08:45:01;;;;;;;;;;;7.90;99.90;;;;;;2616218;47;20057;-69
2024/01/01 08:47:31;;;;;;;;;;;8.00;99.90;;;;;;2616903;54;19947;-69
2024/01/01 08:50:00;;;;;;;;;;;8.00;99.90;;;;;;2614971;54;20612;-68
2024/01/01 08:52:30;;;;;;;;;;;8.00;99.90;;;;;;2614449;47;19953;-68
2024/01/01 08:55:02;;;;;;;;;;;8.10;99.90;;;;;;2613859;49;19939;-68
2024/01/01 08:57:32;;;;;;;;;;;8.10;99.90;;;;;;2616196;39;20215;-68
2024/01/01 09:00:02;;;;;;;;;;;8.10;99.90;;;;;;2615902;49;19947;-69
2024/01/01 09:02:31;;;;;;;;;;;8.20;99.90;;;;;;2615578;47;19958;-70
2024/01/01 09:05:01;;;;;;;;;;;8.20;99.90;;;;;;2616582;47;19949;-69
2024/01/01 09:07:31;;;;;;;;;;;8.30;99.90;;;;;;2620897;54;20034;-69
2024/01/01 09:10:04;;;;;;;;;;;8.30;99.90;;;;;;2616267;54;19954;-69
2024/01/01 09:12:34;;;;;;;;;;;8.30;99.90;;;;;;2617383;39;20361;-70
2024/01/01 09:15:03;;;;;;;;;;;8.30;99.90;;;;;;2620075;47;19939;-68
2024/01/01 09:17:33;;;;;;;;;;;8.50;99.90;;;;;;2620714;47;20452;-69
2024/01/01 09:20:03;;;;;;;;;;;8.40;99.90;;;;;;2619887;54;20000;-69
2024/01/01 09:22:33;;;;;;;;;;;8.30;99.90;;;;;;2619505;39;20367;-69
2024/01/01 09:25:05;;;;;;;;;;;8.30;99.90;;;;;;2617961;47;19939;-70
2024/01/01 09:27:35;;;;;;;;;;;8.20;99.90;;;;;;2617219;54;19939;-69
2024/01/01 09:30:04;;;;;;;;;;;8.20;99.90;;;;;;2616589;54;19946;-69
2024/01/01 09:32:35;;;;;;;;;;;8.20;99.90;;;;;;2616151;54;20065;-72
2024/01/01 09:35:04;;;;;;;;;;;8.20;99.90;;;;;;2615818;50;20436;-72
2024/01/01 09:37:34;;;;;;;;;;;8.30;99.90;;;;;;2618290;31;20392;-71
2024/01/01 09:40:07;;;;;;;;;;;8.20;99.90;;;;;;2614254;54;19996;-72
2024/01/01 09:42:37;;;;;;;;;;;8.30;99.90;;;;;;2618224;47;20421;-71
2024/01/01 09:45:07;;;;;;;;;;;8.30;99.90;;;;;;2619109;47;20521;-71
2024/01/01 09:47:37;;;;;;;;;;;8.40;99.90;;;;;;2618952;39;20348;-72
2024/01/01 09:50:07;;;;;;;;;;;8.30;99.90;;;;;;2621089;54;19947;-71
2024/01/01 09:52:37;;;;;;;;;;;8.30;99.90;;;;;;2617625;54;19947;-72
2024/01/01 09:55:10;;;;;;;;;;;8.30;99.90;;;;;;2616004;39;20202;-72
2024/01/01 09:57:41;;;;;;;;;;;8.30;99.90;;;;;;2616780;47;19967;-72
2024/01/01 10:00:21;;;;;;;;;;;8.30;99.90;;;;;;2616769;54;19939;-71
2024/01/01 10:02:51;;;;;;;;;;;8.30;99.90;;;;;;2616671;47;19950;-71
2024/01/01 10:05:21;;;;;;;;;;;8.30;99.90;;;;;;2617539;50;19947;-72
2024/01/01 10:07:50;;;;;;;;;;;8.30;99.90;;;;;;2617073;54;19946;-70
2024/01/01 10:10:32;;;;;;;;;;;8.30;99.90;;;;;;2616879;54;19946;-71
2024/01/01 10:13:09;;;;;;;;;;;8.30;99.90;;;;;;2618419;54;19963;-72
2024/01/01 10:15:39;;;;;;;;;;;8.30;99.90;;;;;;2619293;54;19965;-73
2024/01/01 10:18:09;;;;;;;;;;;8.30;99.90;;;;;;2620149;54;19953;-71
2024/01/01 10:20:40;;;;;;;;;;;8.30;99.90;;;;;;2617684;54;20034;-72
2024/01/01 10:23:25;;;;;;;;;;;8.30;99.90;;;;;;2617307;54;19947;-73
2024/01/01 10:26:06;;;;;;;;;;;8.20;99.90;;;;;;2620124;54;19945;-74
2024/01/01 10:31:12;;;;;;;;;;;8.20;99.90;;;;;;2617598;54;19938;-72
2024/01/01 10:33:42;;;;;;;;;;;7.30;99.90;;;;;;2622226;39;20376;-73
2024/01/01 10:36:14;;;;;;;;;;;8.30;99.90;;;;;;2617432;54;19950;-71
2024/01/01 10:38:44;;;;;;;;;;;8.30;99.90;;;;;;2618615;47;19946;-72
2024/01/01 10:41:17;;;;;;;;;;;8.30;99.90;;;;;;2616889;54;19946;-72
2024/01/01 10:43:48;;;;;;;;;;;8.40;99.90;;;;;;2618512;54;19954;-71
2024/01/01 10:46:17;;;;;;;;;;;8.40;99.90;;;;;;2619268;39;20373;-72
2024/01/01 10:48:48;;;;;;;;;;;8.40;99.90;;;;;;2607855;47;19950;-73
2024/01/01 10:51:30;;;;;;;;;;;8.40;99.90;;;;;;2607322;47;20520;-72
2024/01/01 10:54:15;;;;;;;;;;;8.40;99.90;;;;;;2607747;54;20369;-73
2024/01/01 10:56:52;;;;;;;;;;;8.50;99.90;;;;;;2610931;47;20508;-72
2024/01/01 10:59:22;;;;;;;;;;;8.50;99.90;;;;;;2612097;51;20449;-73
2024/01/01 11:01:54;;;;;;;;;;;8.50;99.90;;;;;;2611970;54;19954;-73
2024/01/01 11:04:25;;;;;;;;;;;8.50;99.90;;;;;;2612423;48;19969;-73
2024/01/01 11:06:54;;;;;;;;;;;8.50;99.90;;;;;;2612017;54;19962;-71
2024/01/01 11:09:34;;;;;;;;;;;8.70;99.90;;;;;;2612374;54;20002;-72
2024/01/01 11:12:07;;;;;;;;;;;8.40;99.90;;;;;;2613209;47;19950;-72
2024/01/01 11:14:38;;;;;;;;;;;8.60;99.90;;;;;;2611864;47;19947;-74
2024/01/01 11:17:10;;;;;;;;;;;8.60;99.90;;;;;;2611210;47;20495;-73
2024/01/01 11:19:41;;;;;;;;;;;8.60;99.90;;;;;;2607988;47;20443;-74
2024/01/01 11:22:35;;;;;;;;;;;8.60;99.90;;;;;;2606130;53;19947;-72
2024/01/01 11:25:06;;;;;;;;;;;8.70;99.90;;;;;;2617312;54;19946;-74
2024/01/01 11:27:47;;;;;;;;;;;8.60;99.90;;;;;;2593834;54;19951;-81
2024/01/01 11:30:18;;;;;;;;;;;8.70;99.90;;;;;;2627280;47;20814;-81
2024/01/01 11:32:48;;;;;;;;;;;8.80;99.90;;;;;;2628510;54;19939;-85
2024/01/01 11:35:20;;;;;;;;;;;8.80;99.90;;;;;;2629785;47;19943;-82
2024/01/01 11:37:50;;;;;;;;;;;8.80;99.90;;;;;;2628845;47;19939;-84
2024/01/01 11:40:20;;;;;;;;;;;8.90;99.90;;;;;;2628349;47;19939;-82
2024/01/01 11:42:53;;;;;;;;;;;9.00;99.90;;;;;;2628155;47;19946;-83
2024/01/01 21:12:36;;;;;;;;;;;9.10;99.90;;;;;;2584638;46;20092;-73
2024/01/01 21:15:06;;;;;;;;;;;9.90;99.90;;;;;;2604988;54;19954;-72
2024/01/01 21:17:35;;;;;;;;;;;8.70;99.90;;;;;;2605957;54;20679;-73
2024/01/01 21:20:06;;;;;;;;;;;8.70;99.90;;;;;;2605991;47;19958;-73
2024/01/01 21:22:36;;;;;;;;;;;8.70;99.90;;;;;;2606619;54;19946;-76
2024/01/01 21:25:07;;;;;;;;;;;8.80;99.90;;;;;;2605480;47;20440;-74
2024/01/01 21:27:39;;;;;;;;;;;9.00;99.90;;;;;;2606209;47;20469;-74
2024/01/01 21:30:09;;;;;;;;;;;8.80;99.90;;;;;;2604998;54;19946;-75
2024/01/01 21:32:39;;;;;;;;;;;8.80;99.90;;;;;;2605766;54;20475;-75
2024/01/01 21:35:15;;;;;;;;;;;8.90;99.90;;;;;;2605993;47;19947;-74
2024/01/01 21:37:45;;;;;;;;;;;8.80;99.90;;;;;;2606113;47;19948;-77
2024/01/01 21:40:15;;;;;;;;;;;8.90;99.90;;;;;;2604226;54;19950;-75
2024/01/01 21:42:48;;;;;;;;;;;8.80;99.90;;;;;;2605773;39;20340;-76
2024/01/01 21:45:18;;;;;;;;;;;8.80;99.90;;;;;;2603247;47;19954;-74
2024/01/01 21:47:48;;;;;;;;;;;8.90;99.90;;;;;;2604867;39;20360;-72
2024/01/01 21:50:18;;;;;;;;;;;8.60;99.90;;;;;;2606184;47;19951;-72
2024/01/01 21:52:48;;;;;;;;;;;8.90;99.90;;;;;;2615747;47;19955;-72
2024/01/01 21:55:18;;;;;;;;;;;8.90;99.90;;;;;;2616897;51;19953;-75
2024/01/01 21:57:50;;;;;;;;;;;8.90;99.90;;;;;;2617041;47;19958;-72
2024/01/01 22:00:20;;;;;;;;;;;8.80;99.90;;;;;;2625359;54;19939;-72
2024/01/01 22:02:50;;;;;;;;;;;8.80;99.90;;;;;;2625485;54;20412;-70
2024/01/01 22:05:20;;;;;;;;;;;8.80;99.90;;;;;;2622487;47;20428;-72
2024/01/01 22:07:52;;;;;;;;;;;8.80;99.90;;;;;;2622964;54;19965;-72
2024/01/01 22:10:22;;;;;;;;;;;8.80;99.90;;;;;;2621767;47;19943;-71
2024/01/01 22:12:54;;;;;;;;;;;8.80;99.90;;;;;;2618974;54;19954;-72
2024/01/01 22:15:24;;;;;;;;;;;8.80;99.90;;;;;;2617974;54;19947;-73
2024/01/01 22:17:54;;;;;;;;;;;8.80;99.90;;;;;;2617856;47;19946;-72
2024/01/01 22:20:23;;;;;;;;;;;8.80;99.90;;;;;;2616582;54;19976;-73
2024/01/01 22:22:53;;;;;;;;;;;8.90;99.90;;;;;;2617556;47;19938;-72
2024/01/01 22:25:23;;;;;;;;;;;8.80;99.90;;;;;;2615756;50;20298;-72
2024/01/01 22:27:55;;;;;;;;;;;8.90;99.90;;;;;;2617362;47;19957;-72
2024/01/01 22:30:25;;;;;;;;;;;8.80;99.90;;;;;;2616825;47;19946;-72
2024/01/01 22:32:54;;;;;;;;;;;8.90;99.90;;;;;;2617686;31;20451;-73
2024/01/01 22:35:24;;;;;;;;;;;8.80;99.90;;;;;;2616903;39;20309;-72
2024/01/01 22:37:54;;;;;;;;;;;8.80;99.90;;;;;;2617713;54;19954;-72
2024/01/01 22:40:23;;;;;;;;;;;8.80;99.90;;;;;;2616677;47;19946;-71
2024/01/01 22:42:56;;;;;;;;;;;8.80;99.90;;;;;;2618767;46;19951;-71
2024/01/01 22:45:26;;;;;;;;;;;8.80;99.90;;;;;;2616827;54;19946;-72
2024/01/01 22:47:55;;;;;;;;;;;8.80;99.90;;;;;;2620372;39;20345;-73
2024/01/01 22:50:25;;;;;;;;;;;8.80;99.90;;;;;;2619614;39;20443;-72
2024/01/01 22:52:55;;;;;;;;;;;8.80;99.90;;;;;;2617100;47;20488;-72
2024/01/01 22:55:25;;;;;;;;;;;8.80;99.90;;;;;;2615642;54;19969;-73
2024/01/01 22:57:57;;;;;;;;;;;8.80;99.90;;;;;;2617329;47;19939;-73
2024/01/01 23:00:27;;;;;;;;;;;8.70;99.90;;;;;;2617599;39;20612;-73
2024/01/01 23:02:57;;;;;;;;;;;8.70;99.90;;;;;;2619404;54;19953;-72
2024/01/01 23:05:27;;;;;;;;;;;8.60;99.90;;;;;;2619332;54;19946;-72
2024/01/01 23:07:56;;;;;;;;;;;8.80;99.90;;;;;;2616669;47;20381;-72
2024/01/01 23:10:23;;;;;;;;;;;8.80;99.90;;;;;;2615648;47;19966;-72
2024/01/01 23:12:54;;;;;;;;;;;8.80;99.90;;;;;;2618431;54;19947;-74
2024/01/01 23:15:26;;;;;;;;;;;8.80;99.90;;;;;;2620115;47;19946;-75
2024/01/01 23:17:55;;;;;;;;;;;8.80;99.90;;;;;;2621612;54;19945;-72
2024/01/01 23:20:25;;;;;;;;;;;8.70;99.90;;;;;;2622290;54;19946;-72
2024/01/01 23:22:55;;;;;;;;;;;8.80;99.90;;;;;;2622932;47;19947;-74
2024/01/01 23:25:25;;;;;;;;;;;8.80;99.90;;;;;;2619077;46;19938;-72
2024/01/01 23:27:55;;;;;;;;;;;8.80;99.90;;;;;;2619592;54;19947;-72
2024/01/01 23:30:27;;;;;;;;;;;8.80;99.90;;;;;;2617125;54;19954;-72
2024/01/01 23:32:57;;;;;;;;;;;8.80;99.90;;;;;;2616726;54;20827;-71
2024/01/01 23:35:26;;;;;;;;;;;8.80;99.90;;;;;;2616182;47;19946;-72
2024/01/01 23:37:56;;;;;;;;;;;8.80;99.90;;;;;;2616793;47;20494;-72
2024/01/01 23:40:26;;;;;;;;;;;8.80;99.90;;;;;;2616101;47;19946;-74
2024/01/01 23:42:56;;;;;;;;;;;8.80;99.90;;;;;;2617336;54;19969;-73
2024/01/01 23:45:28;;;;;;;;;;;8.80;99.90;;;;;;2617698;47;19946;-73
2024/01/01 23:47:58;;;;;;;;;;;8.80;99.90;;;;;;2617265;54;20460;-73
2024/01/01 23:50:28;;;;;;;;;;;8.80;99.90;;;;;;2617884;47;20485;-72
2024/01/01 23:52:58;;;;;;;;;;;8.80;99.90;;;;;;2618125;54;19947;-73
2024/01/01 23:55:27;;;;;;;;;;;8.80;99.90;;;;;;2617138;47;20516;-72
2024/01/01 23:57:57;;;;;;;;;;;8.90;99.90;;;;;;2618261;47;19946;-71
